Details From MUCU - Santiago De Cuba Antonio Maceo Intl
To MUHA - La Havane Jose Marti Intl
Flight Number -
Tags Decoded
Created
Modified
Stats Distance 412 nm / 763 km
Max Altitude 0 ft / 0 m
Waypoints 4
Social Downloads 8
Likes 0
Share VATSIM

Download

Looking for another format? Having issues loading an existing format? Contact us
Advertisement - Login to hide

Notes

Decoded

Route

MUCU UMZ UCF MUHA

ID Type Via Altitude Latitude Longitude Leg Dist Tot Dist Heading (true) Name
O MUCU APT - 0 ft / 0 m 19.98075˚ -75.83554˚ - 0 nm - -
UMZ VOR - 0 ft / 0 m 20.30281˚ -77.09944˚ 73 nm 73 nm 285° / 285° MANZANILLO VOR-DME
UCF NDB - 0 ft / 0 m 22.11389˚ -80.42533˚ 215 nm 289 nm 301° / 300° -
O MUHA APT - 0 ft / 0 m 22.97863˚ -82.42494˚ 122 nm 411 nm 295° / 295° -

Altitude Profile

Advertisement - Login to hide

Weather


0- 5 10 15 20 25 30 35+ Temperature / ° C

Clouds and Precipitation
Forecast for 2018-05-23 18:00 UTC. Updated 5 hours ago

Ground ~20,000 ft ~40,000 ft Winds

MUCU

Details ICAO MUCU (SCU)
Name Santiago de Cuba Antonio Maceo Intl
Region Cuba
Timezone America/Havana (UTC-4.0)
Stats Elevation 249 ft / 76 m (AMSL)
Location 19.972337° -75.835517°
Runways 2
Magnetic Variation 8.446° W

METAR

MUCU 232153Z 19006KT 9000 FEW020 28/20 Q1015

Decode

TAF

Not found

Departure Runways

ID Width Length Bearing (true) Bearing (mag) Surface Threshold Offset Overrun Length
09 148 ft / 45 m 13,107 ft / 3,995 m 89.29° 97.74° Asphalt 985 ft / 300 m 0 ft / 0 m
18 148 ft / 45 m 4,272 ft / 1,302 m 179.40° 187.85° Asphalt 0 ft / 0 m 0 ft / 0 m
27 148 ft / 45 m 13,107 ft / 3,995 m 269.30° 277.75° Asphalt 980 ft / 299 m 340 ft / 104 m
36 148 ft / 45 m 4,272 ft / 1,302 m 359.40° 7.85° Asphalt 0 ft / 0 m 0 ft / 0 m

MUHA

Details ICAO MUHA (HAV)
Name Havana Jose Marti Intl
Region Cuba
Timezone America/Havana (UTC-4.0)
Stats Elevation 209 ft / 64 m (AMSL)
Location 22.989154° -82.409086°
Runways 1
Magnetic Variation 4.959° W

METAR

MUHA 232155Z 13007KT 090V160 9000 FEW025 OVC180 26/21 Q1016

Decode

TAF

Not found

Destination Runways

ID Width Length Bearing (true) Bearing (mag) Surface Threshold Offset Overrun Length
06 148 ft / 45 m 13,133 ft / 4,003 m 54.21° 59.17° Asphalt 0 ft / 0 m 476 ft / 145 m
24 148 ft / 45 m 13,133 ft / 4,003 m 234.23° 239.19° Asphalt 0 ft / 0 m 197 ft / 60 m

Approach Navaids

Runway Type Ident Frequency Range Bearing (true) Bearing (mag) Slope Elevation
06 Localiser IHA 110.50 MHz 18 nm / 33 km 54.23° 59.19° - 209 ft / 64 m (AMSL)
06 Glidescope IHA 110.50 MHz 10 nm / 19 km 54.22° 59.18° 3.00° 209 ft / 64 m (AMSL)

Popular Alternatives